Time;durP1;ratioP1;P1;durP2;ratioP2;P2;SDS_P1;SDS_P2;PMS_P1;PMS_P2;Temp;Humidity;BMP_temperature;BMP_pressure;BME280_temperature;BME280_humidity;BME280_pressure;Samples;Min_cycle;Max_cycle;Signal;HPM_P1;HPM_P2
2021/03/30 00:00:40;;;;;;;6.7;2.7;;;;;;;5.44;43.49805;96635.14;;;;
2021/03/30 00:01:42;;;;;;;6.7;2.7;;;;;;;5.44;43.49805;96635.14;;;;
2021/03/30 00:02:43;;;;;;;6.7;2.7;;;;;;;5.44;43.49805;96635.14;;;;
2021/03/30 00:03:44;;;;;;;6.7;2.7;;;;;;;5.44;43.49805;96635.14;;;;
2021/03/30 00:04:45;;;;;;;6.7;2.7;;;;;;;5.44;43.49805;96635.14;;;;
2021/03/30 00:05:46;;;;;;;6.7;2.7;;;;;;;5.44;43.49805;96635.14;;;;
2021/03/30 00:06:46;;;;;;;6.7;2.7;;;;;;;5.44;43.49805;96635.14;;;;
2021/03/30 00:07:47;;;;;;;6.7;2.7;;;;;;;5.44;43.49805;96635.14;;;;
2021/03/30 00:08:47;;;;;;;6.7;2.7;;;;;;;5.44;43.49805;96635.14;;;;
2021/03/30 00:09:48;;;;;;;6.7;2.7;;;;;;;5.44;43.49805;96635.14;;;;
2021/03/30 00:10:48;;;;;;;3.3;2.65;;;;;;;5.41;43.61328;96635.5;;;;
2021/03/30 00:11:49;;;;;;;3.3;2.65;;;;;;;5.41;43.61328;96635.5;;;;
2021/03/30 00:12:50;;;;;;;3.3;2.65;;;;;;;5.41;43.61328;96635.5;;;;
2021/03/30 00:13:50;;;;;;;3.3;2.65;;;;;;;5.41;43.61328;96635.5;;;;
2021/03/30 00:14:50;;;;;;;3.3;2.65;;;;;;;5.41;43.61328;96635.5;;;;
2021/03/30 00:15:51;;;;;;;3.3;2.65;;;;;;;5.41;43.61328;96635.5;;;;
2021/03/30 00:16:51;;;;;;;3.3;2.65;;;;;;;5.41;43.61328;96635.5;;;;
2021/03/30 00:17:52;;;;;;;3.3;2.65;;;;;;;5.41;43.61328;96635.5;;;;
2021/03/30 00:18:53;;;;;;;3.3;2.65;;;;;;;5.41;43.61328;96635.5;;;;
2021/03/30 00:19:53;;;;;;;3.3;2.65;;;;;;;5.41;43.61328;96635.5;;;;
2021/03/30 00:20:54;;;;;;;5.2;2.4;;;;;;;5.23;43.79785;96634.76;;;;
2021/03/30 00:21:54;;;;;;;5.2;2.4;;;;;;;5.23;43.79785;96634.76;;;;
2021/03/30 00:22:55;;;;;;;5.2;2.4;;;;;;;5.23;43.79785;96634.76;;;;
2021/03/30 00:23:55;;;;;;;5.2;2.4;;;;;;;5.23;43.79785;96634.76;;;;
2021/03/30 00:24:56;;;;;;;5.2;2.4;;;;;;;5.23;43.79785;96634.76;;;;
2021/03/30 00:25:56;;;;;;;5.2;2.4;;;;;;;5.23;43.79785;96634.76;;;;
2021/03/30 00:26:57;;;;;;;5.2;2.4;;;;;;;5.23;43.79785;96634.76;;;;
2021/03/30 00:27:57;;;;;;;5.2;2.4;;;;;;;5.23;43.79785;96634.76;;;;
2021/03/30 00:28:58;;;;;;;5.2;2.4;;;;;;;5.23;43.79785;96634.76;;;;
2021/03/30 00:29:58;;;;;;;5.2;2.4;;;;;;;5.23;43.79785;96634.76;;;;
2021/03/30 00:30:59;;;;;;;5.2;2.4;;;;;;;5.23;43.79785;96634.76;;;;
2021/03/30 00:32:00;;;;;;;4.25;2.4;;;;;;;5.12;44.03125;96624;;;;
2021/03/30 00:33:00;;;;;;;4.25;2.4;;;;;;;5.12;44.03125;96624;;;;
2021/03/30 00:34:01;;;;;;;4.25;2.4;;;;;;;5.12;44.03125;96624;;;;
2021/03/30 00:35:02;;;;;;;4.25;2.4;;;;;;;5.12;44.03125;96624;;;;
2021/03/30 00:36:03;;;;;;;4.25;2.4;;;;;;;5.12;44.03125;96624;;;;
2021/03/30 00:37:04;;;;;;;4.25;2.4;;;;;;;5.12;44.03125;96624;;;;
2021/03/30 00:38:09;;;;;;;4.25;2.4;;;;;;;5.12;44.03125;96624;;;;
2021/03/30 00:39:09;;;;;;;4.25;2.4;;;;;;;5.12;44.03125;96624;;;;
2021/03/30 00:40:10;;;;;;;4.25;2.4;;;;;;;5.12;44.03125;96624;;;;
2021/03/30 00:41:12;;;;;;;4.25;2.4;;;;;;;5.12;44.03125;96624;;;;
2021/03/30 00:42:13;;;;;;;4.05;2.2;;;;;;;5.01;44.23438;96623.44;;;;
2021/03/30 00:43:16;;;;;;;4.05;2.2;;;;;;;5.01;44.23438;96623.44;;;;
2021/03/30 00:44:17;;;;;;;4.05;2.2;;;;;;;5.01;44.23438;96623.44;;;;
2021/03/30 00:45:17;;;;;;;4.05;2.2;;;;;;;5.01;44.23438;96623.44;;;;
2021/03/30 00:46:18;;;;;;;4.05;2.2;;;;;;;5.01;44.23438;96623.44;;;;
2021/03/30 00:47:19;;;;;;;4.05;2.2;;;;;;;5.01;44.23438;96623.44;;;;
2021/03/30 00:48:21;;;;;;;4.05;2.2;;;;;;;5.01;44.23438;96623.44;;;;
2021/03/30 00:49:25;;;;;;;4.05;2.2;;;;;;;5.01;44.23438;96623.44;;;;
2021/03/30 00:50:25;;;;;;;4.05;2.2;;;;;;;5.01;44.23438;96623.44;;;;
2021/03/30 00:51:31;;;;;;;4.05;2.2;;;;;;;5.01;44.23438;96623.44;;;;
2021/03/30 00:52:32;;;;;;;4.05;2.2;;;;;;;5.01;44.23438;96623.44;;;;
2021/03/30 00:53:32;;;;;;;3.4;2.2;;;;;;;4.87;44.36816;96608.06;;;;
2021/03/30 00:54:33;;;;;;;3.4;2.2;;;;;;;4.87;44.36816;96608.06;;;;
2021/03/30 00:55:34;;;;;;;3.4;2.2;;;;;;;4.87;44.36816;96608.06;;;;
2021/03/30 00:56:35;;;;;;;3.4;2.2;;;;;;;4.87;44.36816;96608.06;;;;
2021/03/30 00:57:36;;;;;;;3.4;2.2;;;;;;;4.87;44.36816;96608.06;;;;
2021/03/30 00:58:37;;;;;;;3.4;2.2;;;;;;;4.87;44.36816;96608.06;;;;
2021/03/30 00:59:38;;;;;;;3.4;2.2;;;;;;;4.87;44.36816;96608.06;;;;
2021/03/30 01:00:39;;;;;;;3.4;2.2;;;;;;;4.87;44.36816;96608.06;;;;
2021/03/30 01:01:39;;;;;;;3.4;2.2;;;;;;;4.87;44.36816;96608.06;;;;
2021/03/30 01:02:40;;;;;;;3.4;2.2;;;;;;;4.87;44.36816;96608.06;;;;
2021/03/30 01:03:41;;;;;;;4;2.2;;;;;;;4.67;44.70898;96606.73;;;;
2021/03/30 01:04:41;;;;;;;4;2.2;;;;;;;4.67;44.70898;96606.73;;;;
2021/03/30 01:05:42;;;;;;;4;2.2;;;;;;;4.67;44.70898;96606.73;;;;
2021/03/30 01:06:42;;;;;;;4;2.2;;;;;;;4.67;44.70898;96606.73;;;;
2021/03/30 01:07:44;;;;;;;4;2.2;;;;;;;4.67;44.70898;96606.73;;;;
2021/03/30 01:09:02;;;;;;;4;2.2;;;;;;;4.67;44.70898;96606.73;;;;
2021/03/30 01:10:14;;;;;;;4;2.2;;;;;;;4.67;44.70898;96606.73;;;;
2021/03/30 01:11:27;;;;;;;4;2.2;;;;;;;4.67;44.70898;96606.73;;;;
2021/03/30 01:12:40;;;;;;;4;2.2;;;;;;;4.67;44.70898;96606.73;;;;
2021/03/30 01:13:55;;;;;;;4.450001;2.5;;;;;;;4.53;44.93945;96619.44;;;;
2021/03/30 01:15:09;;;;;;;4.450001;2.5;;;;;;;4.53;44.93945;96619.44;;;;
2021/03/30 01:16:19;;;;;;;4.450001;2.5;;;;;;;4.53;44.93945;96619.44;;;;
2021/03/30 01:17:25;;;;;;;4.450001;2.5;;;;;;;4.53;44.93945;96619.44;;;;
2021/03/30 01:18:36;;;;;;;4.450001;2.5;;;;;;;4.53;44.93945;96619.44;;;;
2021/03/30 01:19:46;;;;;;;4.450001;2.5;;;;;;;4.53;44.93945;96619.44;;;;
2021/03/30 01:21:13;;;;;;;4.450001;2.5;;;;;;;4.53;44.93945;96619.44;;;;
2021/03/30 01:22:31;;;;;;;4.450001;2.5;;;;;;;4.53;44.93945;96619.44;;;;
2021/03/30 01:23:56;;;;;;;4.450001;2.5;;;;;;;4.53;44.93945;96619.44;;;;
2021/03/30 01:25:05;;;;;;;3.4;2.25;;;;;;;4.42;45.16309;96626.86;;;;
2021/03/30 01:26:07;;;;;;;3.4;2.25;;;;;;;4.42;45.16309;96626.86;;;;
2021/03/30 01:27:18;;;;;;;3.4;2.25;;;;;;;4.42;45.16309;96626.86;;;;
2021/03/30 01:28:28;;;;;;;3.4;2.25;;;;;;;4.42;45.16309;96626.86;;;;
2021/03/30 01:29:39;;;;;;;3.4;2.25;;;;;;;4.42;45.16309;96626.86;;;;
2021/03/30 01:30:47;;;;;;;3.4;2.25;;;;;;;4.42;45.16309;96626.86;;;;
2021/03/30 01:31:48;;;;;;;3.4;2.25;;;;;;;4.42;45.16309;96626.86;;;;
2021/03/30 01:32:54;;;;;;;3.4;2.25;;;;;;;4.42;45.16309;96626.86;;;;
2021/03/30 01:34:00;;;;;;;3.4;2.25;;;;;;;4.42;45.16309;96626.86;;;;
2021/03/30 01:35:03;;;;;;;3.4;2.25;;;;;;;4.42;45.16309;96626.86;;;;
2021/03/30 01:36:08;;;;;;;3.7;2.35;;;;;;;4.31;45.32031;96615.21;;;;
2021/03/30 01:37:09;;;;;;;3.7;2.35;;;;;;;4.31;45.32031;96615.21;;;;
2021/03/30 01:38:11;;;;;;;3.7;2.35;;;;;;;4.31;45.32031;96615.21;;;;
2021/03/30 01:39:13;;;;;;;3.7;2.35;;;;;;;4.31;45.32031;96615.21;;;;
2021/03/30 01:40:15;;;;;;;3.7;2.35;;;;;;;4.31;45.32031;96615.21;;;;
2021/03/30 01:41:21;;;;;;;3.7;2.35;;;;;;;4.31;45.32031;96615.21;;;;
2021/03/30 01:42:23;;;;;;;3.7;2.35;;;;;;;4.31;45.32031;96615.21;;;;
2021/03/30 01:43:27;;;;;;;3.7;2.35;;;;;;;4.31;45.32031;96615.21;;;;
2021/03/30 01:44:28;;;;;;;3.7;2.35;;;;;;;4.31;45.32031;96615.21;;;;
2021/03/30 01:45:30;;;;;;;3.7;2.35;;;;;;;4.31;45.32031;96615.21;;;;
2021/03/30 01:46:31;;;;;;;3.25;2.3;;;;;;;4.2;45.5752;96610.6;;;;
2021/03/30 01:47:33;;;;;;;3.25;2.3;;;;;;;4.2;45.5752;96610.6;;;;
2021/03/30 01:48:37;;;;;;;3.25;2.3;;;;;;;4.2;45.5752;96610.6;;;;
2021/03/30 01:49:37;;;;;;;3.25;2.3;;;;;;;4.2;45.5752;96610.6;;;;
2021/03/30 01:50:40;;;;;;;3.25;2.3;;;;;;;4.2;45.5752;96610.6;;;;
2021/03/30 01:51:41;;;;;;;3.25;2.3;;;;;;;4.2;45.5752;96610.6;;;;
2021/03/30 01:52:42;;;;;;;3.25;2.3;;;;;;;4.2;45.5752;96610.6;;;;
2021/03/30 01:53:44;;;;;;;3.25;2.3;;;;;;;4.2;45.5752;96610.6;;;;
2021/03/30 01:54:45;;;;;;;3.25;2.3;;;;;;;4.2;45.5752;96610.6;;;;
2021/03/30 01:55:48;;;;;;;3.25;2.3;;;;;;;4.2;45.5752;96610.6;;;;
2021/03/30 01:56:52;;;;;;;5.75;2.35;;;;;;;4.09;45.73242;96606.9;;;;
2021/03/30 01:57:54;;;;;;;5.75;2.35;;;;;;;4.09;45.73242;96606.9;;;;
2021/03/30 01:58:56;;;;;;;5.75;2.35;;;;;;;4.09;45.73242;96606.9;;;;
2021/03/30 01:59:58;;;;;;;5.75;2.35;;;;;;;4.09;45.73242;96606.9;;;;
2021/03/30 02:01:00;;;;;;;5.75;2.35;;;;;;;4.09;45.73242;96606.9;;;;
2021/03/30 02:02:01;;;;;;;5.75;2.35;;;;;;;4.09;45.73242;96606.9;;;;
2021/03/30 02:03:02;;;;;;;5.75;2.35;;;;;;;4.09;45.73242;96606.9;;;;
2021/03/30 02:04:06;;;;;;;5.75;2.35;;;;;;;4.09;45.73242;96606.9;;;;
2021/03/30 02:05:07;;;;;;;5.75;2.35;;;;;;;4.09;45.73242;96606.9;;;;
2021/03/30 02:06:10;;;;;;;5.75;2.35;;;;;;;4.09;45.73242;96606.9;;;;
2021/03/30 02:07:12;;;;;;;5.75;2.35;;;;;;;4.09;45.73242;96606.9;;;;
2021/03/30 02:08:15;;;;;;;2.9;2.3;;;;;;;4;46;96594.51;;;;
2021/03/30 02:09:20;;;;;;;2.9;2.3;;;;;;;4;46;96594.51;;;;
2021/03/30 02:10:30;;;;;;;2.9;2.3;;;;;;;4;46;96594.51;;;;
2021/03/30 02:11:36;;;;;;;2.9;2.3;;;;;;;4;46;96594.51;;;;
2021/03/30 02:12:42;;;;;;;2.9;2.3;;;;;;;4;46;96594.51;;;;
2021/03/30 02:13:45;;;;;;;2.9;2.3;;;;;;;4;46;96594.51;;;;
2021/03/30 02:14:45;;;;;;;2.9;2.3;;;;;;;4;46;96594.51;;;;
2021/03/30 02:15:48;;;;;;;2.9;2.3;;;;;;;4;46;96594.51;;;;
2021/03/30 02:16:54;;;;;;;2.9;2.3;;;;;;;4;46;96594.51;;;;
2021/03/30 02:18:00;;;;;;;2.8;2.2;;;;;;;3.91;46.21387;96588.33;;;;
2021/03/30 02:19:08;;;;;;;2.8;2.2;;;;;;;3.91;46.21387;96588.33;;;;
2021/03/30 02:20:14;;;;;;;2.8;2.2;;;;;;;3.91;46.21387;96588.33;;;;
2021/03/30 02:21:20;;;;;;;2.8;2.2;;;;;;;3.91;46.21387;96588.33;;;;
2021/03/30 02:22:25;;;;;;;2.8;2.2;;;;;;;3.91;46.21387;96588.33;;;;
2021/03/30 02:23:34;;;;;;;2.8;2.2;;;;;;;3.91;46.21387;96588.33;;;;
2021/03/30 02:24:36;;;;;;;2.8;2.2;;;;;;;3.91;46.21387;96588.33;;;;
2021/03/30 02:25:39;;;;;;;2.8;2.2;;;;;;;3.91;46.21387;96588.33;;;;
2021/03/30 02:26:45;;;;;;;2.8;2.2;;;;;;;3.91;46.21387;96588.33;;;;
2021/03/30 02:27:48;;;;;;;2.8;2.2;;;;;;;3.91;46.21387;96588.33;;;;
2021/03/30 02:28:56;;;;;;;5.099999;2.45;;;;;;;3.84;46.36523;96592.22;;;;
2021/03/30 02:29:58;;;;;;;5.099999;2.45;;;;;;;3.84;46.36523;96592.22;;;;
2021/03/30 02:31:01;;;;;;;5.099999;2.45;;;;;;;3.84;46.36523;96592.22;;;;
2021/03/30 02:32:05;;;;;;;5.099999;2.45;;;;;;;3.84;46.36523;96592.22;;;;
2021/03/30 02:33:09;;;;;;;5.099999;2.45;;;;;;;3.84;46.36523;96592.22;;;;
2021/03/30 02:34:14;;;;;;;5.099999;2.45;;;;;;;3.84;46.36523;96592.22;;;;
2021/03/30 02:35:17;;;;;;;5.099999;2.45;;;;;;;3.84;46.36523;96592.22;;;;
2021/03/30 02:36:21;;;;;;;5.099999;2.45;;;;;;;3.84;46.36523;96592.22;;;;
2021/03/30 02:37:26;;;;;;;5.099999;2.45;;;;;;;3.84;46.36523;96592.22;;;;
2021/03/30 02:38:26;;;;;;;5.099999;2.45;;;;;;;3.84;46.36523;96592.22;;;;
2021/03/30 02:39:31;;;;;;;3.4;2.25;;;;;;;3.76;46.50488;96589.12;;;;
2021/03/30 02:40:32;;;;;;;3.4;2.25;;;;;;;3.76;46.50488;96589.12;;;;
2021/03/30 02:41:34;;;;;;;3.4;2.25;;;;;;;3.76;46.50488;96589.12;;;;
2021/03/30 02:42:36;;;;;;;3.4;2.25;;;;;;;3.76;46.50488;96589.12;;;;
2021/03/30 02:43:40;;;;;;;3.4;2.25;;;;;;;3.76;46.50488;96589.12;;;;
2021/03/30 02:44:41;;;;;;;3.4;2.25;;;;;;;3.76;46.50488;96589.12;;;;
2021/03/30 02:45:42;;;;;;;3.4;2.25;;;;;;;3.76;46.50488;96589.12;;;;
2021/03/30 02:46:46;;;;;;;3.4;2.25;;;;;;;3.76;46.50488;96589.12;;;;
2021/03/30 02:47:48;;;;;;;3.4;2.25;;;;;;;3.76;46.50488;96589.12;;;;
2021/03/30 02:48:49;;;;;;;3.4;2.25;;;;;;;3.76;46.50488;96589.12;;;;
2021/03/30 02:49:51;;;;;;;3.4;2.25;;;;;;;3.76;46.50488;96589.12;;;;
2021/03/30 02:50:53;;;;;;;3.45;2.25;;;;;;;3.73;46.63965;96578.67;;;;
2021/03/30 02:51:54;;;;;;;3.45;2.25;;;;;;;3.73;46.63965;96578.67;;;;
2021/03/30 02:52:56;;;;;;;3.45;2.25;;;;;;;3.73;46.63965;96578.67;;;;
2021/03/30 02:53:58;;;;;;;3.45;2.25;;;;;;;3.73;46.63965;96578.67;;;;
2021/03/30 02:54:59;;;;;;;3.45;2.25;;;;;;;3.73;46.63965;96578.67;;;;
2021/03/30 02:56:01;;;;;;;3.45;2.25;;;;;;;3.73;46.63965;96578.67;;;;
2021/03/30 02:57:04;;;;;;;3.45;2.25;;;;;;;3.73;46.63965;96578.67;;;;
2021/03/30 02:58:07;;;;;;;3.45;2.25;;;;;;;3.73;46.63965;96578.67;;;;
2021/03/30 02:59:08;;;;;;;3.45;2.25;;;;;;;3.73;46.63965;96578.67;;;;
2021/03/30 03:00:10;;;;;;;3.45;2.25;;;;;;;3.73;46.63965;96578.67;;;;
2021/03/30 03:01:13;;;;;;;3.95;2;;;;;;;3.65;46.80273;96575.05;;;;
2021/03/30 03:02:15;;;;;;;3.95;2;;;;;;;3.65;46.80273;96575.05;;;;
2021/03/30 03:03:16;;;;;;;3.95;2;;;;;;;3.65;46.80273;96575.05;;;;
2021/03/30 03:04:17;;;;;;;3.95;2;;;;;;;3.65;46.80273;96575.05;;;;
2021/03/30 03:05:18;;;;;;;3.95;2;;;;;;;3.65;46.80273;96575.05;;;;
2021/03/30 03:06:19;;;;;;;3.95;2;;;;;;;3.65;46.80273;96575.05;;;;
2021/03/30 03:07:20;;;;;;;3.95;2;;;;;;;3.65;46.80273;96575.05;;;;
2021/03/30 03:08:21;;;;;;;3.95;2;;;;;;;3.65;46.80273;96575.05;;;;
2021/03/30 03:09:22;;;;;;;3.95;2;;;;;;;3.65;46.80273;96575.05;;;;
2021/03/30 03:10:24;;;;;;;3.95;2;;;;;;;3.65;46.80273;96575.05;;;;
2021/03/30 03:11:25;;;;;;;3.25;2.4;;;;;;;3.49;46.99707;96577.66;;;;
2021/03/30 03:12:28;;;;;;;3.25;2.4;;;;;;;3.49;46.99707;96577.66;;;;
2021/03/30 03:13:30;;;;;;;3.25;2.4;;;;;;;3.49;46.99707;96577.66;;;;
2021/03/30 03:14:32;;;;;;;3.25;2.4;;;;;;;3.49;46.99707;96577.66;;;;
2021/03/30 03:15:34;;;;;;;3.25;2.4;;;;;;;3.49;46.99707;96577.66;;;;
2021/03/30 03:16:35;;;;;;;3.25;2.4;;;;;;;3.49;46.99707;96577.66;;;;
2021/03/30 03:17:38;;;;;;;3.25;2.4;;;;;;;3.49;46.99707;96577.66;;;;
2021/03/30 03:18:39;;;;;;;3.25;2.4;;;;;;;3.49;46.99707;96577.66;;;;
2021/03/30 03:19:41;;;;;;;3.25;2.4;;;;;;;3.49;46.99707;96577.66;;;;
2021/03/30 03:20:42;;;;;;;3.25;2.4;;;;;;;3.49;46.99707;96577.66;;;;
2021/03/30 03:21:45;;;;;;;3.25;2.4;;;;;;;3.49;46.99707;96577.66;;;;
2021/03/30 03:22:48;;;;;;;3.3;2.2;;;;;;;3.35;47.27734;96574.77;;;;
2021/03/30 03:23:49;;;;;;;3.3;2.2;;;;;;;3.35;47.27734;96574.77;;;;
2021/03/30 03:24:50;;;;;;;3.3;2.2;;;;;;;3.35;47.27734;96574.77;;;;
2021/03/30 03:25:51;;;;;;;3.3;2.2;;;;;;;3.35;47.27734;96574.77;;;;
2021/03/30 03:26:52;;;;;;;3.3;2.2;;;;;;;3.35;47.27734;96574.77;;;;
2021/03/30 03:27:53;;;;;;;3.3;2.2;;;;;;;3.35;47.27734;96574.77;;;;
2021/03/30 03:28:54;;;;;;;3.3;2.2;;;;;;;3.35;47.27734;96574.77;;;;
2021/03/30 03:29:54;;;;;;;3.3;2.2;;;;;;;3.35;47.27734;96574.77;;;;
2021/03/30 03:30:56;;;;;;;3.3;2.2;;;;;;;3.35;47.27734;96574.77;;;;
2021/03/30 03:31:57;;;;;;;3.3;2.2;;;;;;;3.35;47.27734;96574.77;;;;
2021/03/30 03:32:58;;;;;;;3.5;2.25;;;;;;;3.21;47.45313;96577.55;;;;
2021/03/30 03:34:07;;;;;;;3.5;2.25;;;;;;;3.21;47.45313;96577.55;;;;
2021/03/30 03:35:08;;;;;;;3.5;2.25;;;;;;;3.21;47.45313;96577.55;;;;
2021/03/30 03:36:11;;;;;;;3.5;2.25;;;;;;;3.21;47.45313;96577.55;;;;
2021/03/30 03:37:12;;;;;;;3.5;2.25;;;;;;;3.21;47.45313;96577.55;;;;
2021/03/30 03:38:13;;;;;;;3.5;2.25;;;;;;;3.21;47.45313;96577.55;;;;
2021/03/30 03:39:14;;;;;;;3.5;2.25;;;;;;;3.21;47.45313;96577.55;;;;
2021/03/30 03:40:17;;;;;;;3.5;2.25;;;;;;;3.21;47.45313;96577.55;;;;
2021/03/30 03:41:18;;;;;;;3.5;2.25;;;;;;;3.21;47.45313;96577.55;;;;
2021/03/30 03:42:18;;;;;;;3.5;2.25;;;;;;;3.21;47.45313;96577.55;;;;
2021/03/30 03:43:19;;;;;;;3.5;2.25;;;;;;;3.21;47.45313;96577.55;;;;
2021/03/30 03:44:19;;;;;;;4.7;2.5;;;;;;;3.1;47.64258;96582.23;;;;
2021/03/30 03:45:20;;;;;;;4.7;2.5;;;;;;;3.1;47.64258;96582.23;;;;
2021/03/30 03:46:21;;;;;;;4.7;2.5;;;;;;;3.1;47.64258;96582.23;;;;
2021/03/30 03:47:22;;;;;;;4.7;2.5;;;;;;;3.1;47.64258;96582.23;;;;
2021/03/30 03:48:22;;;;;;;4.7;2.5;;;;;;;3.1;47.64258;96582.23;;;;
2021/03/30 03:49:24;;;;;;;4.7;2.5;;;;;;;3.1;47.64258;96582.23;;;;
2021/03/30 03:50:25;;;;;;;4.7;2.5;;;;;;;3.1;47.64258;96582.23;;;;
2021/03/30 03:51:25;;;;;;;4.7;2.5;;;;;;;3.1;47.64258;96582.23;;;;
2021/03/30 03:52:29;;;;;;;4.7;2.5;;;;;;;3.1;47.64258;96582.23;;;;
2021/03/30 03:53:34;;;;;;;4.7;2.5;;;;;;;3.1;47.64258;96582.23;;;;
2021/03/30 03:54:37;;;;;;;2.6;2.1;;;;;;;2.99;47.85254;96585.66;;;;
2021/03/30 03:55:40;;;;;;;2.6;2.1;;;;;;;2.99;47.85254;96585.66;;;;
2021/03/30 03:56:47;;;;;;;2.6;2.1;;;;;;;2.99;47.85254;96585.66;;;;
2021/03/30 03:57:52;;;;;;;2.6;2.1;;;;;;;2.99;47.85254;96585.66;;;;
2021/03/30 03:58:57;;;;;;;2.6;2.1;;;;;;;2.99;47.85254;96585.66;;;;
2021/03/30 04:00:04;;;;;;;2.6;2.1;;;;;;;2.99;47.85254;96585.66;;;;
2021/03/30 04:01:07;;;;;;;2.6;2.1;;;;;;;2.99;47.85254;96585.66;;;;
2021/03/30 04:02:12;;;;;;;2.6;2.1;;;;;;;2.99;47.85254;96585.66;;;;
2021/03/30 04:03:19;;;;;;;2.6;2.1;;;;;;;2.99;47.85254;96585.66;;;;
2021/03/30 04:04:26;;;;;;;2.6;2.1;;;;;;;2.99;47.85254;96585.66;;;;
2021/03/30 04:05:30;;;;;;;3.9;2.25;;;;;;;2.88;48.05273;96589.01;;;;
2021/03/30 04:06:36;;;;;;;3.9;2.25;;;;;;;2.88;48.05273;96589.01;;;;
2021/03/30 04:07:44;;;;;;;3.9;2.25;;;;;;;2.88;48.05273;96589.01;;;;
2021/03/30 04:08:48;;;;;;;3.9;2.25;;;;;;;2.88;48.05273;96589.01;;;;
2021/03/30 04:09:51;;;;;;;3.9;2.25;;;;;;;2.88;48.05273;96589.01;;;;
2021/03/30 04:10:54;;;;;;;3.9;2.25;;;;;;;2.88;48.05273;96589.01;;;;
2021/03/30 04:11:59;;;;;;;3.9;2.25;;;;;;;2.88;48.05273;96589.01;;;;
2021/03/30 04:13:01;;;;;;;3.9;2.25;;;;;;;2.88;48.05273;96589.01;;;;
2021/03/30 04:14:04;;;;;;;3.9;2.25;;;;;;;2.88;48.05273;96589.01;;;;
2021/03/30 04:15:05;;;;;;;3.9;2.25;;;;;;;2.88;48.05273;96589.01;;;;
2021/03/30 04:16:07;;;;;;;4;2.65;;;;;;;2.76;48.21875;96591.61;;;;
2021/03/30 04:17:07;;;;;;;4;2.65;;;;;;;2.76;48.21875;96591.61;;;;
2021/03/30 04:18:08;;;;;;;4;2.65;;;;;;;2.76;48.21875;96591.61;;;;
2021/03/30 04:19:09;;;;;;;4;2.65;;;;;;;2.76;48.21875;96591.61;;;;
2021/03/30 04:20:10;;;;;;;4;2.65;;;;;;;2.76;48.21875;96591.61;;;;
2021/03/30 04:21:14;;;;;;;4;2.65;;;;;;;2.76;48.21875;96591.61;;;;
2021/03/30 04:22:20;;;;;;;4;2.65;;;;;;;2.76;48.21875;96591.61;;;;
2021/03/30 04:23:24;;;;;;;4;2.65;;;;;;;2.76;48.21875;96591.61;;;;
2021/03/30 04:24:24;;;;;;;4;2.65;;;;;;;2.76;48.21875;96591.61;;;;
2021/03/30 04:25:25;;;;;;;4;2.65;;;;;;;2.76;48.21875;96591.61;;;;
2021/03/30 04:26:26;;;;;;;3.55;2.6;;;;;;;2.73;48.37402;96599.92;;;;
2021/03/30 04:27:27;;;;;;;3.55;2.6;;;;;;;2.73;48.37402;96599.92;;;;
2021/03/30 04:28:28;;;;;;;3.55;2.6;;;;;;;2.73;48.37402;96599.92;;;;
2021/03/30 04:29:28;;;;;;;3.55;2.6;;;;;;;2.73;48.37402;96599.92;;;;
2021/03/30 04:30:29;;;;;;;3.55;2.6;;;;;;;2.73;48.37402;96599.92;;;;
2021/03/30 04:31:30;;;;;;;3.55;2.6;;;;;;;2.73;48.37402;96599.92;;;;
2021/03/30 04:32:30;;;;;;;3.55;2.6;;;;;;;2.73;48.37402;96599.92;;;;
2021/03/30 04:33:31;;;;;;;3.55;2.6;;;;;;;2.73;48.37402;96599.92;;;;
2021/03/30 04:34:32;;;;;;;3.55;2.6;;;;;;;2.73;48.37402;96599.92;;;;
2021/03/30 04:35:32;;;;;;;3.55;2.6;;;;;;;2.73;48.37402;96599.92;;;;
2021/03/30 04:36:33;;;;;;;3.55;2.6;;;;;;;2.73;48.37402;96599.92;;;;
2021/03/30 04:37:33;;;;;;;4.699999;3.05;;;;;;;2.68;48.46387;96599.53;;;;
2021/03/30 04:38:34;;;;;;;4.699999;3.05;;;;;;;2.68;48.46387;96599.53;;;;
2021/03/30 04:39:34;;;;;;;4.699999;3.05;;;;;;;2.68;48.46387;96599.53;;;;
2021/03/30 04:40:35;;;;;;;4.699999;3.05;;;;;;;2.68;48.46387;96599.53;;;;
2021/03/30 04:41:36;;;;;;;4.699999;3.05;;;;;;;2.68;48.46387;96599.53;;;;
2021/03/30 04:42:36;;;;;;;4.699999;3.05;;;;;;;2.68;48.46387;96599.53;;;;
2021/03/30 04:43:37;;;;;;;4.699999;3.05;;;;;;;2.68;48.46387;96599.53;;;;
2021/03/30 04:44:38;;;;;;;4.699999;3.05;;;;;;;2.68;48.46387;96599.53;;;;
2021/03/30 04:45:39;;;;;;;4.699999;3.05;;;;;;;2.68;48.46387;96599.53;;;;
2021/03/30 04:46:39;;;;;;;4.699999;3.05;;;;;;;2.68;48.46387;96599.53;;;;
2021/03/30 04:47:40;;;;;;;8.049999;2.85;;;;;;;2.54;48.69043;96604.1;;;;
2021/03/30 04:48:40;;;;;;;8.049999;2.85;;;;;;;2.54;48.69043;96604.1;;;;
2021/03/30 04:49:41;;;;;;;8.049999;2.85;;;;;;;2.54;48.69043;96604.1;;;;
2021/03/30 04:50:41;;;;;;;8.049999;2.85;;;;;;;2.54;48.69043;96604.1;;;;
2021/03/30 04:51:43;;;;;;;8.049999;2.85;;;;;;;2.54;48.69043;96604.1;;;;
2021/03/30 04:52:43;;;;;;;8.049999;2.85;;;;;;;2.54;48.69043;96604.1;;;;
2021/03/30 04:53:44;;;;;;;8.049999;2.85;;;;;;;2.54;48.69043;96604.1;;;;
2021/03/30 04:54:44;;;;;;;8.049999;2.85;;;;;;;2.54;48.69043;96604.1;;;;
2021/03/30 04:55:45;;;;;;;8.049999;2.85;;;;;;;2.54;48.69043;96604.1;;;;
2021/03/30 04:56:46;;;;;;;8.049999;2.85;;;;;;;2.54;48.69043;96604.1;;;;
2021/03/30 04:57:46;;;;;;;8.049999;2.85;;;;;;;2.54;48.69043;96604.1;;;;
2021/03/30 04:58:47;;;;;;;5.5;3.4;;;;;;;2.5;48.91895;96602.23;;;;
2021/03/30 04:59:48;;;;;;;5.5;3.4;;;;;;;2.5;48.91895;96602.23;;;;
2021/03/30 05:00:48;;;;;;;5.5;3.4;;;;;;;2.5;48.91895;96602.23;;;;
2021/03/30 05:01:49;;;;;;;5.5;3.4;;;;;;;2.5;48.91895;96602.23;;;;
2021/03/30 05:02:49;;;;;;;5.5;3.4;;;;;;;2.5;48.91895;96602.23;;;;
2021/03/30 05:03:50;;;;;;;5.5;3.4;;;;;;;2.5;48.91895;96602.23;;;;
2021/03/30 05:04:50;;;;;;;5.5;3.4;;;;;;;2.5;48.91895;96602.23;;;;
2021/03/30 05:05:51;;;;;;;5.5;3.4;;;;;;;2.5;48.91895;96602.23;;;;
2021/03/30 05:06:51;;;;;;;5.5;3.4;;;;;;;2.5;48.91895;96602.23;;;;
2021/03/30 05:07:53;;;;;;;5.5;3.4;;;;;;;2.5;48.91895;96602.23;;;;
2021/03/30 05:08:53;;;;;;;6.099999;3;;;;;;;2.53;49.01758;96601.1;;;;
2021/03/30 05:09:54;;;;;;;6.099999;3;;;;;;;2.53;49.01758;96601.1;;;;
2021/03/30 05:10:54;;;;;;;6.099999;3;;;;;;;2.53;49.01758;96601.1;;;;
2021/03/30 05:11:55;;;;;;;6.099999;3;;;;;;;2.53;49.01758;96601.1;;;;
2021/03/30 05:12:56;;;;;;;6.099999;3;;;;;;;2.53;49.01758;96601.1;;;;
2021/03/30 05:13:56;;;;;;;6.099999;3;;;;;;;2.53;49.01758;96601.1;;;;
2021/03/30 05:14:56;;;;;;;6.099999;3;;;;;;;2.53;49.01758;96601.1;;;;
2021/03/30 05:15:57;;;;;;;6.099999;3;;;;;;;2.53;49.01758;96601.1;;;;
2021/03/30 05:16:58;;;;;;;6.099999;3;;;;;;;2.53;49.01758;96601.1;;;;
2021/03/30 05:17:58;;;;;;;6.099999;3;;;;;;;2.53;49.01758;96601.1;;;;
2021/03/30 05:18:59;;;;;;;6.099999;3;;;;;;;2.53;49.01758;96601.1;;;;
2021/03/30 05:19:59;;;;;;;6.300001;3;;;;;;;2.62;49.00781;96611.27;;;;
2021/03/30 05:21:00;;;;;;;6.300001;3;;;;;;;2.62;49.00781;96611.27;;;;
2021/03/30 05:22:00;;;;;;;6.300001;3;;;;;;;2.62;49.00781;96611.27;;;;
2021/03/30 05:23:01;;;;;;;6.300001;3;;;;;;;2.62;49.00781;96611.27;;;;
2021/03/30 05:24:01;;;;;;;6.300001;3;;;;;;;2.62;49.00781;96611.27;;;;
2021/03/30 05:25:02;;;;;;;6.300001;3;;;;;;;2.62;49.00781;96611.27;;;;
2021/03/30 05:26:04;;;;;;;6.300001;3;;;;;;;2.62;49.00781;96611.27;;;;
2021/03/30 05:27:04;;;;;;;6.300001;3;;;;;;;2.62;49.00781;96611.27;;;;
2021/03/30 05:28:07;;;;;;;6.300001;3;;;;;;;2.62;49.00781;96611.27;;;;
2021/03/30 05:29:07;;;;;;;6.300001;3;;;;;;;2.62;49.00781;96611.27;;;;
2021/03/30 05:30:08;;;;;;;6.300001;3;;;;;;;2.62;49.00781;96611.27;;;;
2021/03/30 05:31:12;;;;;;;7.55;3.1;;;;;;;2.72;49.03906;96620.48;;;;
2021/03/30 05:32:12;;;;;;;7.55;3.1;;;;;;;2.72;49.03906;96620.48;;;;
2021/03/30 05:33:15;;;;;;;7.55;3.1;;;;;;;2.72;49.03906;96620.48;;;;
2021/03/30 05:34:15;;;;;;;7.55;3.1;;;;;;;2.72;49.03906;96620.48;;;;
2021/03/30 05:35:16;;;;;;;7.55;3.1;;;;;;;2.72;49.03906;96620.48;;;;
2021/03/30 05:36:16;;;;;;;7.55;3.1;;;;;;;2.72;49.03906;96620.48;;;;
2021/03/30 05:37:17;;;;;;;7.55;3.1;;;;;;;2.72;49.03906;96620.48;;;;
2021/03/30 05:38:18;;;;;;;7.55;3.1;;;;;;;2.72;49.03906;96620.48;;;;
2021/03/30 05:39:18;;;;;;;7.55;3.1;;;;;;;2.72;49.03906;96620.48;;;;
2021/03/30 05:40:19;;;;;;;7.55;3.1;;;;;;;2.72;49.03906;96620.48;;;;
2021/03/30 05:41:20;;;;;;;4.25;2.65;;;;;;;2.86;49.18262;96624.85;;;;
2021/03/30 05:42:21;;;;;;;4.25;2.65;;;;;;;2.86;49.18262;96624.85;;;;
2021/03/30 05:43:22;;;;;;;4.25;2.65;;;;;;;2.86;49.18262;96624.85;;;;
2021/03/30 05:44:22;;;;;;;4.25;2.65;;;;;;;2.86;49.18262;96624.85;;;;
2021/03/30 05:45:23;;;;;;;4.25;2.65;;;;;;;2.86;49.18262;96624.85;;;;
2021/03/30 05:46:24;;;;;;;4.25;2.65;;;;;;;2.86;49.18262;96624.85;;;;
2021/03/30 05:47:26;;;;;;;4.25;2.65;;;;;;;2.86;49.18262;96624.85;;;;
2021/03/30 05:48:27;;;;;;;4.25;2.65;;;;;;;2.86;49.18262;96624.85;;;;
2021/03/30 05:49:29;;;;;;;4.25;2.65;;;;;;;2.86;49.18262;96624.85;;;;
2021/03/30 05:50:34;;;;;;;4.25;2.65;;;;;;;2.86;49.18262;96624.85;;;;
2021/03/30 05:51:34;;;;;;;6.7;2.85;;;;;;;3.09;49.3584;96635.77;;;;
2021/03/30 05:52:44;;;;;;;6.7;2.85;;;;;;;3.09;49.3584;96635.77;;;;
2021/03/30 05:53:46;;;;;;;6.7;2.85;;;;;;;3.09;49.3584;96635.77;;;;
2021/03/30 05:54:56;;;;;;;6.7;2.85;;;;;;;3.09;49.3584;96635.77;;;;
2021/03/30 05:55:58;;;;;;;6.7;2.85;;;;;;;3.09;49.3584;96635.77;;;;
2021/03/30 05:57:02;;;;;;;6.7;2.85;;;;;;;3.09;49.3584;96635.77;;;;
2021/03/30 05:58:06;;;;;;;6.7;2.85;;;;;;;3.09;49.3584;96635.77;;;;
2021/03/30 05:59:07;;;;;;;6.7;2.85;;;;;;;3.09;49.3584;96635.77;;;;
2021/03/30 06:00:10;;;;;;;6.7;2.85;;;;;;;3.09;49.3584;96635.77;;;;
2021/03/30 06:01:13;;;;;;;6.7;2.85;;;;;;;3.09;49.3584;96635.77;;;;
2021/03/30 06:02:14;;;;;;;6.7;2.85;;;;;;;3.09;49.3584;96635.77;;;;
2021/03/30 06:03:21;;;;;;;6.2;2.55;;;;;;;3.45;49.30371;96642.24;;;;
2021/03/30 06:04:24;;;;;;;6.2;2.55;;;;;;;3.45;49.30371;96642.24;;;;
2021/03/30 06:05:25;;;;;;;6.2;2.55;;;;;;;3.45;49.30371;96642.24;;;;